createdAt,value
2023-01-03T00:02:20.129Z,27.23
2023-01-03T00:04:49.956Z,27.55
2023-01-03T00:07:34.742Z,31.40
2023-01-03T00:10:12.628Z,25.65
2023-01-03T00:12:41.712Z,24.93
2023-01-03T00:15:12.588Z,40.22
2023-01-03T00:17:41.721Z,33.33
2023-01-03T00:20:12.532Z,46.22
2023-01-03T00:22:41.907Z,36.83
2023-01-03T00:25:11.256Z,29.73
2023-01-03T00:27:40.357Z,32.67
2023-01-03T00:30:10.551Z,32.20
2023-01-03T00:32:39.694Z,40.58
2023-01-03T00:35:09.683Z,37.50
2023-01-03T00:37:38.898Z,34.72
2023-01-03T00:40:08.590Z,41.60
2023-01-03T00:42:57.977Z,40.70
2023-01-03T00:45:29.887Z,39.67
2023-01-03T00:48:01.519Z,35.05
2023-01-03T00:50:30.714Z,33.33
2023-01-03T00:52:59.920Z,28.02
2023-01-03T00:55:29.131Z,37.28
2023-01-03T00:57:58.316Z,29.52
2023-01-03T01:00:27.515Z,29.75
2023-01-03T01:02:56.960Z,31.98
2023-01-03T01:05:26.582Z,31.13
2023-01-03T01:07:55.815Z,29.90
2023-01-03T01:10:25.733Z,40.13
2023-01-03T01:12:58.084Z,28.05
2023-01-03T01:15:27.355Z,33.70
2023-01-03T01:17:56.552Z,34.58
2023-01-03T01:20:25.717Z,23.83
2023-01-03T01:22:55.052Z,31.52
2023-01-03T01:25:24.225Z,28.50
2023-01-03T01:27:53.512Z,30.08
2023-01-03T01:30:22.723Z,30.95
2023-01-03T01:32:51.968Z,28.77
2023-01-03T01:35:21.195Z,23.55
2023-01-03T01:37:52.064Z,29.50
2023-01-03T01:40:21.713Z,43.13
2023-01-03T01:43:09.585Z,42.38
2023-01-03T01:45:40.888Z,22.38
2023-01-03T01:48:15.749Z,24.33
2023-01-03T01:50:56.234Z,22.65
2023-01-03T01:53:34.797Z,23.55
2023-01-03T01:56:10.586Z,19.77
2023-01-03T01:58:43.095Z,20.45
2023-01-03T02:01:16.452Z,25.23
2023-01-03T02:03:52.842Z,21.10
2023-01-03T02:06:23.393Z,22.45
2023-01-03T02:08:52.944Z,22.83
2023-01-03T02:11:42.830Z,20.55
2023-01-03T02:14:50.484Z,18.92
2023-01-03T02:17:50.864Z,16.00
2023-01-03T02:21:18.271Z,22.00
2023-01-03T02:24:27.101Z,16.98
2023-01-03T02:27:30.686Z,17.48
2023-01-03T02:31:10.431Z,21.08
2023-01-03T02:34:42.068Z,18.88
2023-01-03T02:37:31.612Z,20.25
2023-01-03T02:40:30.612Z,19.75
2023-01-03T02:43:30.653Z,19.83
2023-01-03T02:46:23.725Z,20.67
2023-01-03T02:49:47.016Z,16.70
2023-01-03T02:52:24.018Z,17.33
2023-01-03T02:55:28.005Z,23.40
2023-01-03T02:58:13.248Z,17.73
2023-01-03T03:00:49.740Z,17.95
2023-01-03T03:03:28.069Z,18.00
2023-01-03T03:06:16.854Z,21.38
2023-01-03T03:08:48.500Z,21.90
2023-01-03T03:11:35.888Z,19.58
2023-01-03T03:14:27.367Z,17.30
2023-01-03T03:17:05.502Z,15.13
2023-01-03T03:19:58.666Z,18.67
2023-01-03T03:23:12.180Z,21.13
2023-01-03T03:25:56.009Z,19.33
2023-01-03T03:28:37.614Z,19.88
2023-01-03T03:31:40.595Z,17.17
2023-01-03T03:34:26.404Z,18.77
2023-01-03T03:37:39.425Z,16.73
2023-01-03T03:40:28.613Z,14.15
2023-01-03T03:43:18.069Z,11.68
2023-01-03T03:46:09.053Z,14.30
2023-01-03T03:49:08.489Z,13.65
2023-01-03T03:51:40.374Z,13.32
2023-01-03T03:54:18.386Z,12.18
2023-01-03T03:56:55.907Z,13.00
2023-01-03T03:59:29.053Z,17.33
2023-01-03T04:02:02.532Z,13.65
2023-01-03T04:04:39.086Z,27.42
2023-01-03T04:07:08.526Z,19.45
2023-01-03T04:09:37.624Z,33.90
2023-01-03T04:12:06.987Z,12.00
2023-01-03T04:14:36.152Z,12.43
2023-01-03T04:17:05.300Z,19.27
2023-01-03T04:19:34.393Z,19.05
2023-01-03T04:22:03.504Z,11.27
2023-01-03T04:24:32.641Z,11.80
2023-01-03T04:27:01.888Z,14.32
2023-01-03T04:29:34.116Z,15.52
2023-01-03T04:32:09.172Z,11.85
2023-01-03T04:34:38.302Z,13.05
2023-01-03T04:37:07.634Z,14.05
2023-01-03T04:39:36.929Z,10.93
2023-01-03T04:42:45.005Z,13.63
2023-01-03T04:45:14.190Z,10.52
2023-01-03T04:47:43.273Z,16.65
2023-01-03T04:50:12.406Z,10.38
2023-01-03T04:52:41.606Z,11.23
2023-01-03T04:55:11.273Z,8.32
2023-01-03T04:57:40.536Z,13.77
2023-01-03T05:00:10.855Z,15.57
2023-01-03T05:02:40.126Z,11.75
2023-01-03T05:05:10.817Z,11.18
2023-01-03T05:07:39.990Z,10.38
2023-01-03T05:10:09.567Z,14.40
2023-01-03T05:12:38.665Z,9.95
2023-01-03T05:15:08.677Z,14.30
2023-01-03T05:17:37.802Z,12.77
2023-01-03T05:20:26.121Z,10.98
2023-01-03T05:25:51.544Z,7.82
2023-01-03T05:28:25.553Z,15.35
2023-01-03T05:30:54.868Z,13.15
2023-01-03T05:33:24.048Z,12.52
2023-01-03T05:35:53.344Z,14.02
2023-01-03T05:38:24.758Z,9.27
2023-01-03T05:40:54.107Z,11.27
2023-01-03T05:43:23.326Z,10.13
2023-01-03T05:45:54.319Z,12.00
2023-01-03T05:48:24.643Z,14.02
2023-01-03T05:50:54.122Z,10.70
2023-01-03T05:53:23.270Z,10.48
2023-01-03T05:55:55.203Z,8.07
2023-01-03T05:58:24.401Z,9.35
2023-01-03T06:00:53.593Z,12.45
2023-01-03T06:03:23.613Z,12.05
2023-01-03T06:05:52.757Z,11.63
2023-01-03T06:08:21.976Z,13.45
2023-01-03T06:10:53.767Z,15.98
2023-01-03T06:13:24.764Z,12.70
2023-01-03T06:16:12.012Z,10.50
2023-01-03T06:18:41.282Z,9.90
2023-01-03T06:21:10.440Z,11.98
2023-01-03T06:23:39.638Z,8.82
2023-01-03T06:26:08.855Z,7.78
2023-01-03T06:28:38.434Z,5.10
2023-01-03T06:31:07.892Z,9.23
2023-01-03T06:33:37.982Z,21.38
2023-01-03T06:36:11.072Z,11.93
2023-01-03T06:38:41.088Z,31.77
2023-01-03T06:41:10.612Z,48.95
2023-01-03T06:43:39.768Z,58.63
2023-01-03T06:46:27.650Z,85.30
2023-01-03T06:49:15.243Z,123.22
2023-01-03T06:52:03.282Z,81.95
2023-01-03T06:54:36.995Z,47.30
2023-01-03T06:57:07.609Z,6.93
2023-01-03T06:59:36.693Z,8.27
2023-01-03T07:02:09.951Z,16.73
2023-01-03T07:04:39.141Z,7.90
2023-01-03T07:07:08.377Z,7.47
2023-01-03T07:09:38.533Z,11.10
2023-01-03T07:12:26.002Z,7.88
2023-01-03T07:14:55.113Z,10.15
2023-01-03T07:17:24.212Z,13.50
2023-01-03T07:19:53.342Z,40.25
2023-01-03T07:22:22.441Z,8.00
2023-01-03T07:24:51.694Z,9.40
2023-01-03T07:27:21.104Z,7.32
2023-01-03T07:29:50.317Z,34.65
2023-01-03T07:32:19.444Z,11.77
2023-01-03T07:34:48.546Z,8.95
2023-01-03T07:37:17.730Z,8.95
2023-01-03T07:39:46.842Z,11.30
2023-01-03T07:42:34.380Z,12.20
2023-01-03T07:45:03.611Z,13.70
2023-01-03T07:47:32.962Z,7.18
2023-01-03T07:50:02.141Z,8.35
2023-01-03T07:52:31.260Z,18.77
2023-01-03T07:55:00.426Z,16.42
2023-01-03T07:57:30.274Z,7.75
2023-01-03T07:59:59.382Z,13.05
2023-01-03T08:02:28.663Z,12.77
2023-01-03T08:04:57.890Z,12.88
2023-01-03T08:07:27.093Z,11.60
2023-01-03T08:10:14.414Z,5.55
2023-01-03T08:13:04.500Z,7.67
2023-01-03T08:15:33.816Z,8.32
2023-01-03T08:18:03.118Z,7.35
2023-01-03T08:20:32.229Z,7.88
2023-01-03T08:23:02.103Z,9.95
2023-01-03T08:25:32.236Z,11.82
2023-01-03T08:28:03.016Z,8.85
2023-01-03T08:30:32.504Z,9.90
2023-01-03T08:33:05.308Z,7.78
2023-01-03T08:35:40.864Z,26.88
2023-01-03T08:38:19.197Z,5.97
2023-01-03T08:43:19.052Z,10.57
2023-01-03T08:45:50.355Z,8.48
2023-01-03T08:48:24.369Z,8.57
2023-01-03T08:50:53.933Z,5.15
2023-01-03T08:53:25.280Z,6.82
2023-01-03T08:55:54.487Z,8.15
2023-01-03T08:58:23.947Z,9.75
2023-01-03T09:00:53.120Z,5.93
2023-01-03T09:03:22.491Z,4.72
2023-01-03T09:05:51.823Z,5.72
2023-01-03T09:08:21.015Z,6.90
2023-01-03T09:10:50.205Z,5.32
2023-01-03T09:13:19.377Z,10.40
2023-01-03T09:15:48.534Z,6.38
2023-01-03T09:18:18.032Z,4.68
2023-01-03T09:20:52.211Z,6.25
2023-01-03T09:23:21.602Z,10.88
2023-01-03T09:25:51.241Z,9.52
2023-01-03T09:28:20.477Z,8.77
2023-01-03T09:30:49.941Z,6.30
2023-01-03T09:33:19.269Z,20.63
2023-01-03T09:35:48.567Z,14.15
2023-01-03T09:38:17.761Z,16.33
2023-01-03T09:40:48.693Z,15.77
2023-01-03T09:43:25.614Z,6.82
2023-01-03T09:46:02.979Z,7.25
2023-01-03T09:48:38.565Z,25.77
2023-01-03T09:51:35.148Z,13.80
2023-01-03T09:54:22.945Z,12.98
2023-01-03T09:57:10.338Z,18.60
2023-01-03T09:59:57.546Z,23.87
2023-01-03T10:03:24.626Z,13.65
2023-01-03T10:06:36.284Z,18.23
2023-01-03T10:09:34.344Z,22.88
2023-01-03T10:12:27.225Z,33.85
2023-01-03T10:15:39.404Z,11.68
2023-01-03T10:18:48.885Z,9.07
2023-01-03T10:21:30.355Z,7.93
2023-01-03T10:24:00.725Z,12.60
2023-01-03T10:26:35.369Z,12.18
2023-01-03T10:29:04.535Z,10.80
2023-01-03T10:32:08.787Z,16.95
2023-01-03T10:34:40.394Z,12.90
2023-01-03T10:37:20.366Z,11.98
2023-01-03T10:39:49.601Z,12.27
2023-01-03T10:42:20.574Z,10.38
2023-01-03T10:45:08.217Z,12.95
2023-01-03T10:47:37.477Z,13.43
2023-01-03T10:50:08.575Z,10.73
2023-01-03T10:52:44.116Z,14.32
2023-01-03T10:55:20.176Z,23.65
2023-01-03T10:58:02.440Z,23.88
2023-01-03T11:00:40.080Z,16.90
2023-01-03T11:03:20.312Z,18.83
2023-01-03T11:06:03.576Z,23.48
2023-01-03T11:08:50.315Z,17.63
2023-01-03T11:11:38.093Z,15.40
2023-01-03T11:14:29.193Z,22.35
2023-01-03T11:17:07.237Z,14.13
2023-01-03T11:19:36.796Z,13.20
2023-01-03T11:22:39.491Z,10.20
2023-01-03T11:26:03.279Z,20.08
2023-01-03T11:28:53.521Z,11.13
2023-01-03T11:32:04.632Z,10.90
2023-01-03T11:35:22.950Z,28.20
2023-01-03T11:38:21.308Z,13.02
2023-01-03T11:41:23.675Z,10.75
2023-01-03T11:44:52.839Z,14.57
2023-01-03T11:47:43.222Z,12.82
2023-01-03T11:50:37.745Z,12.68
2023-01-03T11:53:38.229Z,12.85
2023-01-03T11:56:32.228Z,19.10
2023-01-03T11:59:28.553Z,15.90
2023-01-03T12:02:49.518Z,13.57
2023-01-03T12:05:47.627Z,13.95
2023-01-03T12:08:39.737Z,14.77
2023-01-03T12:11:36.406Z,14.77
2023-01-03T12:14:26.685Z,33.55
2023-01-03T12:17:12.396Z,18.83
2023-01-03T12:19:56.848Z,15.32
2023-01-03T12:22:37.437Z,15.82
2023-01-03T12:25:31.078Z,17.08
2023-01-03T12:28:13.006Z,19.48
2023-01-03T12:31:09.078Z,14.50
2023-01-03T12:34:15.456Z,16.15
2023-01-03T12:37:15.892Z,15.85
2023-01-03T12:40:03.011Z,17.45
2023-01-03T12:42:38.271Z,17.75
2023-01-03T12:45:13.689Z,22.02
2023-01-03T12:47:52.759Z,16.35
2023-01-03T12:50:48.597Z,15.32
2023-01-03T12:53:49.007Z,14.68
2023-01-03T12:56:48.995Z,14.98
2023-01-03T13:00:08.787Z,13.98
2023-01-03T13:02:44.549Z,12.98
2023-01-03T13:05:50.472Z,10.27
2023-01-03T13:08:53.181Z,14.10
2023-01-03T13:11:42.455Z,18.15
2023-01-03T13:14:31.225Z,15.68
2023-01-03T13:17:30.626Z,14.48
2023-01-03T13:20:37.466Z,10.35
2023-01-03T13:23:36.287Z,15.85
2023-01-03T13:26:17.318Z,7.95
2023-01-03T13:28:47.871Z,11.95
2023-01-03T13:31:20.096Z,19.60
2023-01-03T13:34:11.627Z,13.57
2023-01-03T13:37:19.947Z,25.33
2023-01-03T13:40:03.749Z,16.45
2023-01-03T13:42:39.746Z,11.75
2023-01-03T13:45:20.473Z,14.57
2023-01-03T13:47:55.397Z,15.45
2023-01-03T13:50:36.776Z,12.38
2023-01-03T13:53:28.721Z,13.50
2023-01-03T13:56:22.551Z,22.17
2023-01-03T13:59:27.890Z,15.90
2023-01-03T14:02:09.900Z,15.02
2023-01-03T14:05:34.172Z,16.17
